createdAt,value
2018-06-03T00:02:13.049Z,27.90
2018-06-03T00:04:40.493Z,27.86
2018-06-03T00:07:07.974Z,27.86
2018-06-03T00:09:35.425Z,27.85
2018-06-03T00:12:02.834Z,27.90
2018-06-03T00:14:30.275Z,27.90
2018-06-03T00:16:57.769Z,27.92
2018-06-03T00:19:25.174Z,27.35
2018-06-03T00:21:52.679Z,27.25
2018-06-03T00:24:20.105Z,27.35
2018-06-03T00:26:47.693Z,27.40
2018-06-03T00:29:15.142Z,27.36
2018-06-03T00:31:42.633Z,27.37
2018-06-03T00:34:10.050Z,27.34
2018-06-03T00:36:44.095Z,27.35
2018-06-03T00:39:11.569Z,27.29
2018-06-03T00:41:40.091Z,27.24
2018-06-03T00:44:06.468Z,27.24
2018-06-03T00:46:33.916Z,27.22
2018-06-03T00:49:01.428Z,27.20
2018-06-03T00:51:29.194Z,27.18
2018-06-03T00:53:56.307Z,27.17
2018-06-03T00:56:35.662Z,27.13
2018-06-03T00:59:03.202Z,27.11
2018-06-03T01:01:30.625Z,27.08
2018-06-03T01:03:58.106Z,27.09
2018-06-03T01:06:25.520Z,27.07
2018-06-03T01:08:52.972Z,27.04
2018-06-03T01:11:20.608Z,27.01
2018-06-03T01:13:47.984Z,27.00
2018-06-03T01:16:15.431Z,27.01
2018-06-03T01:18:42.914Z,27.03
2018-06-03T01:21:10.396Z,27.06
2018-06-03T01:23:38.645Z,27.05
2018-06-03T01:26:06.094Z,27.05
2018-06-03T01:28:33.645Z,27.07
2018-06-03T01:31:01.242Z,27.08
2018-06-03T01:33:28.532Z,27.09
2018-06-03T01:35:55.984Z,27.07
2018-06-03T01:38:23.424Z,27.01
2018-06-03T01:40:50.868Z,27.02
2018-06-03T01:43:18.315Z,27.04
2018-06-03T01:45:46.702Z,27.04
2018-06-03T01:48:14.254Z,27.05
2018-06-03T01:50:42.356Z,27.04
2018-06-03T01:53:09.832Z,27.02
2018-06-03T01:55:37.334Z,27.00
2018-06-03T01:58:04.772Z,26.99
2018-06-03T02:00:33.047Z,26.97
2018-06-03T02:02:59.631Z,26.96
2018-06-03T02:05:27.104Z,26.97
2018-06-03T02:07:54.514Z,26.95
2018-06-03T02:10:21.966Z,26.93
2018-06-03T02:12:49.449Z,26.90
2018-06-03T02:15:16.915Z,26.89
2018-06-03T02:17:44.294Z,26.88
2018-06-03T02:20:11.776Z,26.87
2018-06-03T02:22:39.191Z,26.86
2018-06-03T02:25:06.665Z,26.84
2018-06-03T02:27:34.071Z,26.83
2018-06-03T02:30:01.554Z,26.81
2018-06-03T02:32:29.019Z,26.82
2018-06-03T02:34:56.437Z,26.79
2018-06-03T02:37:23.842Z,26.79
2018-06-03T02:39:51.320Z,26.78
2018-06-03T02:42:18.761Z,26.79
2018-06-03T02:44:46.166Z,26.77
2018-06-03T02:47:13.646Z,26.76
2018-06-03T02:49:41.084Z,26.75
2018-06-03T02:52:08.494Z,26.75
2018-06-03T02:54:35.944Z,26.73
2018-06-03T02:57:03.421Z,26.73
2018-06-03T02:59:30.865Z,26.74
2018-06-03T03:01:59.120Z,26.72
2018-06-03T03:04:25.717Z,26.72
2018-06-03T03:06:54.127Z,26.72
2018-06-03T03:09:20.603Z,26.70
2018-06-03T03:11:48.049Z,26.70
2018-06-03T03:14:15.524Z,26.71
2018-06-03T03:16:42.978Z,26.70
2018-06-03T03:19:10.422Z,26.68
2018-06-03T03:21:37.864Z,26.69
2018-06-03T03:24:05.313Z,26.69
2018-06-03T03:26:32.759Z,26.68
2018-06-03T03:29:00.893Z,26.70
2018-06-03T03:31:27.979Z,26.69
2018-06-03T03:33:55.369Z,26.69
2018-06-03T03:36:22.646Z,26.69
2018-06-03T03:38:50.238Z,26.68
2018-06-03T03:41:18.014Z,26.68
2018-06-03T03:43:45.455Z,26.67
2018-06-03T03:46:12.950Z,26.70
2018-06-03T03:48:40.353Z,26.69
2018-06-03T03:51:08.091Z,26.71
2018-06-03T03:53:35.692Z,26.70
2018-06-03T03:56:02.717Z,26.71
2018-06-03T03:58:30.161Z,26.70
2018-06-03T04:00:57.600Z,26.70
2018-06-03T04:03:25.014Z,26.71
2018-06-03T04:05:52.489Z,26.69
2018-06-03T04:08:21.053Z,26.71
2018-06-03T04:10:47.392Z,26.70
2018-06-03T04:13:15.154Z,26.68
2018-06-03T04:15:42.278Z,26.69
2018-06-03T04:18:10.125Z,26.69
2018-06-03T04:20:37.167Z,26.72
2018-06-03T04:23:05.078Z,26.72
2018-06-03T04:25:32.050Z,26.74
2018-06-03T04:27:59.494Z,26.77
2018-06-03T04:30:26.972Z,26.79
2018-06-03T04:32:54.457Z,26.82
2018-06-03T04:35:21.866Z,26.85
2018-06-03T04:37:49.341Z,26.87
2018-06-03T04:40:16.784Z,26.88
2018-06-03T04:42:44.197Z,26.90
2018-06-03T04:45:11.642Z,26.88
2018-06-03T04:47:39.089Z,26.90
2018-06-03T04:50:06.991Z,26.89
2018-06-03T04:52:34.005Z,26.91
2018-06-03T04:55:01.456Z,26.91
2018-06-03T04:57:28.886Z,26.92
2018-06-03T04:59:56.330Z,26.96
2018-06-03T05:02:23.772Z,26.97
2018-06-03T05:04:51.673Z,26.94
2018-06-03T05:07:18.791Z,26.93
2018-06-03T05:09:47.063Z,26.94
2018-06-03T05:12:13.518Z,26.94
2018-06-03T05:14:40.994Z,26.95
2018-06-03T05:17:08.405Z,26.96
2018-06-03T05:19:35.885Z,26.99
2018-06-03T05:22:03.288Z,26.95
2018-06-03T05:24:30.731Z,26.96
2018-06-03T05:26:58.181Z,26.98
2018-06-03T05:29:25.631Z,26.98
2018-06-03T05:31:53.075Z,26.97
2018-06-03T05:34:20.659Z,26.98
2018-06-03T05:36:48.004Z,26.97
2018-06-03T05:39:15.421Z,26.95
2018-06-03T05:41:43.263Z,26.97
2018-06-03T05:44:10.344Z,26.98
2018-06-03T05:46:37.766Z,26.98
2018-06-03T05:49:05.207Z,26.99
2018-06-03T05:51:32.650Z,27.02
2018-06-03T05:54:00.384Z,27.00
2018-06-03T05:56:28.293Z,27.00
2018-06-03T05:58:55.147Z,27.04
2018-06-03T06:01:22.543Z,27.01
2018-06-03T06:03:49.904Z,27.03
2018-06-03T06:06:17.351Z,27.02
2018-06-03T06:08:44.767Z,27.02
2018-06-03T06:11:12.207Z,27.05
2018-06-03T06:13:39.729Z,27.05
2018-06-03T06:16:07.177Z,27.05
2018-06-03T06:18:35.009Z,27.06
2018-06-03T06:21:02.061Z,27.09
2018-06-03T06:23:29.472Z,27.07
2018-06-03T06:25:56.914Z,27.06
2018-06-03T06:28:24.433Z,27.09
2018-06-03T06:30:52.143Z,27.08
2018-06-03T06:33:19.429Z,27.06
2018-06-03T06:35:46.916Z,27.08
2018-06-03T06:38:14.464Z,27.08
2018-06-03T06:40:42.089Z,27.08
2018-06-03T06:43:09.181Z,27.08
2018-06-03T06:45:36.662Z,27.08
2018-06-03T06:48:04.071Z,27.05
2018-06-03T06:50:31.553Z,27.01
2018-06-03T06:52:58.977Z,26.97
2018-06-03T06:55:26.461Z,27.32
2018-06-03T06:57:54.021Z,27.42
2018-06-03T07:00:22.089Z,27.32
2018-06-03T07:02:48.867Z,27.26
2018-06-03T07:05:16.273Z,26.97
2018-06-03T07:07:43.720Z,26.83
2018-06-03T07:10:11.173Z,26.95
2018-06-03T07:12:38.625Z,27.67
2018-06-03T07:15:06.073Z,27.93
2018-06-03T07:17:33.778Z,28.04
2018-06-03T07:20:00.996Z,28.17
2018-06-03T07:22:28.738Z,28.18
2018-06-03T07:26:18.208Z,28.23
2018-06-03T07:28:45.646Z,28.35
2018-06-03T07:31:13.098Z,28.35
2018-06-03T07:33:40.654Z,28.32
2018-06-03T07:36:08.097Z,28.39
2018-06-03T07:38:35.576Z,28.53
2018-06-03T07:41:03.024Z,28.43
2018-06-03T07:43:30.511Z,28.40
2018-06-03T07:45:57.897Z,28.36
2018-06-03T07:48:25.376Z,28.39
2018-06-03T07:50:52.784Z,28.55
2018-06-03T07:53:20.339Z,28.58
2018-06-03T07:55:48.062Z,28.46
2018-06-03T07:58:15.306Z,28.49
2018-06-03T08:00:42.664Z,28.38
2018-06-03T08:03:10.196Z,28.08
2018-06-03T08:05:37.951Z,28.02
2018-06-03T08:08:05.038Z,28.02
2018-06-03T08:10:32.501Z,28.00
2018-06-03T08:12:59.912Z,27.98
2018-06-03T08:15:27.361Z,27.92
2018-06-03T08:17:54.810Z,27.91
2018-06-03T08:20:22.333Z,27.91
2018-06-03T08:22:49.702Z,27.98
2018-06-03T08:25:17.381Z,27.46
2018-06-03T08:27:44.624Z,27.19
2018-06-03T08:30:12.062Z,27.12
2018-06-03T08:34:37.748Z,27.73
2018-06-03T08:37:05.156Z,27.89
2018-06-03T08:39:32.602Z,27.70
2018-06-03T08:42:00.047Z,27.72
2018-06-03T08:44:27.529Z,27.78
2018-06-03T08:46:55.827Z,27.64
2018-06-03T08:49:22.494Z,27.41
2018-06-03T08:51:51.087Z,27.33
2018-06-03T08:54:17.408Z,27.20
2018-06-03T08:56:44.769Z,27.29
2018-06-03T08:59:12.217Z,27.27
2018-06-03T09:01:39.670Z,27.32
2018-06-03T09:04:07.119Z,27.07
2018-06-03T09:06:34.564Z,27.17
2018-06-03T09:09:02.016Z,27.14
2018-06-03T09:11:30.153Z,27.15
2018-06-03T09:13:56.883Z,27.06
2018-06-03T09:16:24.330Z,27.16
2018-06-03T09:18:51.934Z,26.99
2018-06-03T09:21:19.220Z,27.20
2018-06-03T09:23:46.737Z,27.39
2018-06-03T09:26:15.360Z,27.26
2018-06-03T09:28:41.611Z,27.23
2018-06-03T09:31:09.278Z,27.24
2018-06-03T09:33:36.762Z,27.36
2018-06-03T09:36:04.172Z,27.48
2018-06-03T09:38:31.865Z,27.48
2018-06-03T09:40:59.095Z,27.48
2018-06-03T09:43:26.547Z,27.52
2018-06-03T09:45:54.023Z,27.54
2018-06-03T09:48:21.407Z,27.35
2018-06-03T09:50:48.932Z,27.28
2018-06-03T09:53:16.354Z,27.42
2018-06-03T09:55:43.771Z,27.52
2018-06-03T09:58:11.214Z,27.53
2018-06-03T10:00:38.662Z,27.57
2018-06-03T10:03:06.105Z,27.28
2018-06-03T10:05:33.731Z,27.17
2018-06-03T10:08:00.997Z,27.13
2018-06-03T10:10:28.688Z,27.33
2018-06-03T10:12:55.884Z,27.37
2018-06-03T10:15:23.373Z,27.28
2018-06-03T10:17:50.792Z,27.33
2018-06-03T10:20:18.375Z,27.26
2018-06-03T10:22:45.726Z,27.32
2018-06-03T10:25:13.180Z,27.44
2018-06-03T10:27:40.588Z,27.34
2018-06-03T10:30:08.075Z,27.29
2018-06-03T10:32:35.577Z,27.28
2018-06-03T10:35:03.927Z,27.28
2018-06-03T10:37:31.370Z,27.26
2018-06-03T10:39:58.817Z,27.40
2018-06-03T10:42:26.317Z,27.32
2018-06-03T10:44:54.506Z,27.39
2018-06-03T10:47:22.350Z,27.54
2018-06-03T10:49:49.702Z,27.52
2018-06-03T10:52:17.114Z,27.58
2018-06-03T10:54:44.746Z,27.59
2018-06-03T10:57:12.001Z,27.64
2018-06-03T10:59:39.515Z,27.63
2018-06-03T11:02:06.929Z,27.58
2018-06-03T11:04:34.345Z,27.72
2018-06-03T11:07:01.792Z,27.69
2018-06-03T11:09:29.270Z,27.77
2018-06-03T11:11:57.114Z,27.70
2018-06-03T11:14:24.492Z,27.63
2018-06-03T11:16:51.939Z,27.71
2018-06-03T11:19:19.445Z,27.77
2018-06-03T11:21:47.104Z,27.79
2018-06-03T11:24:14.238Z,27.79
2018-06-03T11:26:41.686Z,27.82
2018-06-03T11:29:09.129Z,27.83
2018-06-03T11:31:36.605Z,27.83
2018-06-03T11:34:04.055Z,27.89
2018-06-03T11:36:32.451Z,27.91
2018-06-03T11:38:59.910Z,28.00
2018-06-03T11:41:27.393Z,28.02
2018-06-03T11:43:54.835Z,28.06
2018-06-03T11:46:22.280Z,28.08
2018-06-03T11:48:49.743Z,28.12
2018-06-03T11:51:17.187Z,28.09
2018-06-03T11:53:44.766Z,28.16
2018-06-03T11:56:12.145Z,28.13
2018-06-03T11:58:48.731Z,28.12
2018-06-03T12:01:16.056Z,28.09
2018-06-03T12:03:43.471Z,28.08
2018-06-03T12:06:10.915Z,28.14
2018-06-03T12:08:38.396Z,28.28
2018-06-03T12:11:05.805Z,28.28
2018-06-03T12:13:33.317Z,28.28
2018-06-03T12:16:00.772Z,28.23
2018-06-03T12:18:28.175Z,28.21
2018-06-03T12:20:56.534Z,28.22
2018-06-03T12:23:23.975Z,28.29
2018-06-03T12:25:51.463Z,28.32
2018-06-03T12:28:18.994Z,28.33
2018-06-03T12:30:46.393Z,28.27
2018-06-03T12:33:13.866Z,28.22
2018-06-03T12:35:41.281Z,28.14
2018-06-03T12:38:09.396Z,28.09
2018-06-03T12:40:36.210Z,28.15
2018-06-03T12:43:03.622Z,28.13
2018-06-03T12:45:31.096Z,28.11
2018-06-03T12:47:59.105Z,28.13
2018-06-03T12:50:25.988Z,28.18
2018-06-03T12:52:53.492Z,28.23
2018-06-03T12:55:20.842Z,28.35
2018-06-03T12:57:48.321Z,28.58
2018-06-03T13:00:15.759Z,28.73
2018-06-03T13:02:43.239Z,28.81
2018-06-03T13:05:10.620Z,28.47
2018-06-03T13:07:38.070Z,28.33
2018-06-03T13:10:06.035Z,28.20
2018-06-03T13:12:33.029Z,28.35
2018-06-03T13:15:00.454Z,28.29
2018-06-03T13:17:28.084Z,28.18
2018-06-03T13:19:56.576Z,28.13
2018-06-03T13:22:22.986Z,28.09
2018-06-03T13:24:51.387Z,28.10
2018-06-03T13:27:18.056Z,28.10
2018-06-03T13:29:45.393Z,28.09
2018-06-03T13:32:12.847Z,28.04
2018-06-03T13:34:40.328Z,28.02
2018-06-03T13:37:07.887Z,28.04
2018-06-03T13:39:35.373Z,28.03
2018-06-03T13:42:02.793Z,27.99
2018-06-03T13:44:30.288Z,28.06
2018-06-03T13:46:58.475Z,28.01
2018-06-03T13:49:25.206Z,27.98
2018-06-03T13:51:53.181Z,27.96
2018-06-03T13:54:20.183Z,28.00
2018-06-03T13:56:47.997Z,27.96
2018-06-03T13:59:14.989Z,27.98
2018-06-03T14:01:42.758Z,27.93
2018-06-03T14:04:09.905Z,27.91
2018-06-03T14:06:37.357Z,27.90
2018-06-03T14:09:04.812Z,27.90
2018-06-03T14:11:32.264Z,27.92
2018-06-03T14:13:59.723Z,27.92
2018-06-03T14:16:27.968Z,27.94
2018-06-03T14:18:54.664Z,27.94
2018-06-03T14:21:22.081Z,27.95
2018-06-03T14:23:49.530Z,27.98
2018-06-03T14:26:16.988Z,27.98
2018-06-03T14:28:44.438Z,27.99
2018-06-03T14:31:11.892Z,28.00
2018-06-03T14:33:39.376Z,28.02
2018-06-03T14:36:06.825Z,28.03
2018-06-03T14:38:34.277Z,28.03
2018-06-03T14:41:01.694Z,28.05
2018-06-03T14:43:29.544Z,28.04
2018-06-03T14:45:56.927Z,28.07
2018-06-03T14:48:24.952Z,28.07
2018-06-03T14:50:52.657Z,28.08
2018-06-03T14:53:19.861Z,28.08
2018-06-03T14:55:47.277Z,28.08
2018-06-03T14:58:14.762Z,28.10
2018-06-03T15:00:42.261Z,28.11
2018-06-03T15:03:09.711Z,28.13
2018-06-03T15:05:37.137Z,28.17
2018-06-03T15:08:04.706Z,28.18
2018-06-03T15:10:32.126Z,28.19
2018-06-03T15:12:59.570Z,28.20
2018-06-03T15:15:27.131Z,28.18
2018-06-03T15:17:54.538Z,28.18
2018-06-03T15:20:22.062Z,28.18
2018-06-03T15:22:49.495Z,28.16
2018-06-03T15:25:16.916Z,28.15
2018-06-03T15:27:44.373Z,28.17
2018-06-03T15:30:11.875Z,28.17
2018-06-03T15:32:39.284Z,28.16
2018-06-03T15:35:06.846Z,28.18
2018-06-03T15:37:34.297Z,28.18
2018-06-03T15:40:01.767Z,28.20
2018-06-03T15:42:29.209Z,28.23
2018-06-03T15:44:56.650Z,28.25
2018-06-03T15:47:24.104Z,28.26
2018-06-03T15:49:51.570Z,28.28
2018-06-03T15:52:18.974Z,28.28
2018-06-03T15:54:46.470Z,28.28
2018-06-03T15:57:13.924Z,28.24
2018-06-03T15:59:41.371Z,28.20
2018-06-03T16:02:08.792Z,28.17
2018-06-03T16:04:36.244Z,28.16
2018-06-03T16:07:03.709Z,28.17
2018-06-03T16:09:31.200Z,28.17
2018-06-03T16:11:58.633Z,28.34
2018-06-03T16:14:26.097Z,28.44
2018-06-03T16:16:53.561Z,28.63
2018-06-03T16:19:21.018Z,28.73
2018-06-03T16:21:48.492Z,28.80
2018-06-03T16:24:16.030Z,28.95
2018-06-03T16:26:45.131Z,29.10
2018-06-03T16:29:12.609Z,29.19
2018-06-03T16:31:40.077Z,29.35
2018-06-03T16:34:08.321Z,29.39
2018-06-03T16:36:35.522Z,29.31
2018-06-03T16:39:03.040Z,29.28
2018-06-03T16:41:30.639Z,29.11
2018-06-03T16:43:58.700Z,28.97
2018-06-03T16:46:26.207Z,29.03
2018-06-03T16:48:53.662Z,29.07
2018-06-03T16:51:21.216Z,29.15
2018-06-03T16:53:48.596Z,29.20
2018-06-03T16:56:16.905Z,29.24
2018-06-03T16:58:45.143Z,29.18
2018-06-03T17:01:14.012Z,29.10
2018-06-03T17:03:42.238Z,29.02
2018-06-03T17:06:09.753Z,28.95
2018-06-03T17:08:37.190Z,28.87
2018-06-03T17:11:04.682Z,28.65
2018-06-03T17:13:32.122Z,28.62
2018-06-03T17:15:59.607Z,28.56
2018-06-03T17:18:27.171Z,28.55
2018-06-03T17:20:54.469Z,28.43
2018-06-03T17:23:22.565Z,28.36
2018-06-03T17:25:50.629Z,28.29
2018-06-03T17:28:18.114Z,28.26
2018-06-03T17:30:45.557Z,28.15
2018-06-03T17:33:13.003Z,28.10
2018-06-03T17:35:40.496Z,28.01
2018-06-03T17:38:07.999Z,27.90
2018-06-03T17:40:35.451Z,27.76
2018-06-03T17:43:03.171Z,27.83
2018-06-03T17:45:30.767Z,27.85
2018-06-03T17:47:57.959Z,27.81
2018-06-03T17:50:25.903Z,27.63
2018-06-03T17:52:53.916Z,27.67
2018-06-03T17:55:20.908Z,27.69
2018-06-03T17:57:48.442Z,27.52
2018-06-03T18:00:15.840Z,27.55
2018-06-03T18:02:43.285Z,27.54
2018-06-03T18:05:10.928Z,27.48
2018-06-03T18:07:38.740Z,27.44
2018-06-03T18:10:05.791Z,27.42
2018-06-03T18:12:33.259Z,27.30
2018-06-03T18:15:00.681Z,27.31
2018-06-03T18:17:28.273Z,27.64
2018-06-03T18:19:55.665Z,27.79
2018-06-03T18:22:23.195Z,27.60
2018-06-03T18:24:50.892Z,27.83
2018-06-03T18:27:18.106Z,27.76
2018-06-03T18:29:45.592Z,27.72
2018-06-03T18:32:12.990Z,27.94
2018-06-03T18:34:40.441Z,27.99
2018-06-03T18:37:07.883Z,27.97
2018-06-03T18:39:35.904Z,27.91
2018-06-03T18:42:03.581Z,27.58
2018-06-03T18:44:30.907Z,27.21
2018-06-03T18:46:58.360Z,27.25
2018-06-03T18:49:25.853Z,27.51
2018-06-03T18:51:53.377Z,27.76
2018-06-03T18:54:20.870Z,27.76
2018-06-03T18:56:48.893Z,27.32
2018-06-03T18:59:16.026Z,27.09
2018-06-03T19:01:43.431Z,26.92
2018-06-03T19:04:10.881Z,26.94
2018-06-03T19:06:38.299Z,26.97
2018-06-03T19:09:05.763Z,27.33
2018-06-03T19:11:33.312Z,27.64
2018-06-03T19:14:00.658Z,27.26
2018-06-03T19:16:28.501Z,27.11
2018-06-03T19:18:55.630Z,26.84
2018-06-03T19:21:23.062Z,26.82
2018-06-03T19:23:50.828Z,26.71
2018-06-03T19:26:17.994Z,26.79
2018-06-03T19:28:45.438Z,26.56
2018-06-03T19:31:13.583Z,26.55
2018-06-03T19:33:40.337Z,26.45
2018-06-03T19:36:07.782Z,26.50
2018-06-03T19:38:35.228Z,26.36
2018-06-03T19:41:02.647Z,26.78
2018-06-03T19:43:30.091Z,26.96
2018-06-03T19:45:57.579Z,26.89
2018-06-03T19:48:25.394Z,26.74
2018-06-03T19:50:52.467Z,26.97
2018-06-03T19:53:20.056Z,27.17
2018-06-03T19:55:47.670Z,27.27
2018-06-03T19:58:15.058Z,27.53
2018-06-03T20:00:42.460Z,27.86
2018-06-03T20:03:09.911Z,27.92
2018-06-03T20:05:37.449Z,27.91
2018-06-03T20:08:04.893Z,27.89
2018-06-03T20:10:32.340Z,27.93
2018-06-03T20:12:59.786Z,27.96
2018-06-03T20:15:27.281Z,28.04
2018-06-03T20:17:54.751Z,28.05
2018-06-03T20:20:22.177Z,28.08
2018-06-03T20:22:49.590Z,28.04
2018-06-03T20:25:17.739Z,28.06
2018-06-03T20:27:44.550Z,28.07
2018-06-03T20:30:11.982Z,27.93
2018-06-03T20:32:39.390Z,28.11
2018-06-03T20:35:06.837Z,28.07
2018-06-03T20:37:34.299Z,27.87
2018-06-03T20:40:01.756Z,27.85
2018-06-03T20:42:29.649Z,27.86
2018-06-03T20:44:56.758Z,27.88
2018-06-03T20:47:24.178Z,27.95
2018-06-03T20:49:51.651Z,27.92
2018-06-03T20:52:19.174Z,27.90
2018-06-03T20:54:46.724Z,28.01
2018-06-03T20:57:14.175Z,27.95
2018-06-03T20:59:41.617Z,27.95
2018-06-03T21:02:09.035Z,27.96
2018-06-03T21:04:37.220Z,27.95
2018-06-03T21:07:04.426Z,28.00
2018-06-03T21:09:31.882Z,27.95
2018-06-03T21:11:59.645Z,28.10
2018-06-03T21:14:26.801Z,28.01
2018-06-03T21:16:54.283Z,28.06
2018-06-03T21:19:21.688Z,28.07
2018-06-03T21:21:49.232Z,28.11
2018-06-03T21:24:16.698Z,28.05
2018-06-03T21:26:44.199Z,27.86
2018-06-03T21:29:11.564Z,27.77
2018-06-03T21:31:39.009Z,27.77
2018-06-03T21:34:06.449Z,27.78
2018-06-03T21:36:33.899Z,27.82
2018-06-03T21:39:01.377Z,27.84
2018-06-03T21:41:28.826Z,27.83
2018-06-03T21:43:57.063Z,27.80
2018-06-03T21:46:24.948Z,27.85
2018-06-03T21:48:51.383Z,27.82
2018-06-03T21:51:18.833Z,27.78
2018-06-03T21:53:46.249Z,27.73
2018-06-03T21:56:14.518Z,27.74
2018-06-03T21:58:41.174Z,27.81
2018-06-03T22:01:08.617Z,27.74
2018-06-03T22:03:36.026Z,27.71
2018-06-03T22:06:04.472Z,27.70
2018-06-03T22:08:30.948Z,27.71
2018-06-03T22:10:58.357Z,27.70
2018-06-03T22:13:25.832Z,27.71
2018-06-03T22:15:53.240Z,27.67
2018-06-03T22:18:21.028Z,27.66
2018-06-03T22:20:48.173Z,27.68
2018-06-03T22:23:16.051Z,27.66
2018-06-03T22:25:43.450Z,27.66
2018-06-03T22:28:10.509Z,27.62
2018-06-03T22:30:37.917Z,27.65
2018-06-03T22:33:05.370Z,27.66
2018-06-03T22:35:32.837Z,27.65
2018-06-03T22:38:00.648Z,27.63
2018-06-03T22:40:27.701Z,27.64
2018-06-03T22:42:55.146Z,27.63
2018-06-03T22:45:22.763Z,27.61
2018-06-03T22:47:50.030Z,27.63
2018-06-03T22:50:17.736Z,27.63
2018-06-03T22:52:44.956Z,27.58
2018-06-03T22:55:12.744Z,27.57
2018-06-03T22:57:44.484Z,27.60
2018-06-03T23:00:13.084Z,27.58
2018-06-03T23:02:40.315Z,27.60
2018-06-03T23:05:06.849Z,27.58
2018-06-03T23:07:34.292Z,27.58
2018-06-03T23:10:01.706Z,27.60
2018-06-03T23:12:29.204Z,27.60
2018-06-03T23:14:56.649Z,27.57
2018-06-03T23:17:24.287Z,27.56
2018-06-03T23:19:51.536Z,27.57
2018-06-03T23:22:18.983Z,27.57
2018-06-03T23:24:46.394Z,27.57
2018-06-03T23:27:13.834Z,27.56
2018-06-03T23:29:41.325Z,27.59
2018-06-03T23:32:08.720Z,27.60
2018-06-03T23:34:36.161Z,27.57
2018-06-03T23:37:04.013Z,27.54
2018-06-03T23:39:31.164Z,27.54
2018-06-03T23:41:58.560Z,27.48
2018-06-03T23:44:26.910Z,27.49
2018-06-03T23:46:53.444Z,27.53
2018-06-03T23:49:21.583Z,27.51
2018-06-03T23:51:48.379Z,27.47
2018-06-03T23:54:15.838Z,27.47
2018-06-03T23:56:44.008Z,27.49
2018-06-03T23:59:10.758Z,27.50
